ADVERTISEMENT

iOS app on App Store Android app on Google Play

2018 \ Pasadena Triathlon - March 10, 2018

Notes Pages Download Filter By
  1 2 3 4 5 [6] 7 8




Keyword Exact  
Division

Bib Division Last Name First Name Division Place Chip Run T1 Bike T2 Swim Overall City State
721 50-54 Male Cardona Charles Donnie 26 01:26:42 00:33:05 00:03:31 00:40:57 00:04:24 00:04:43 501 Covina CA
553 40-44 Male Romero Gabe 42 01:26:51 00:34:17 00:02:50 00:39:21 00:04:42 00:05:39 502 Anaheim CA
146 25-29 Female Rogers Hailey 27 01:26:53 00:38:08 00:01:35 00:38:20 00:03:42 00:05:06 503 Arleta CA
830 60-64 Male Costa Paul 19 01:26:53 00:35:42 00:01:52 00:38:24 00:05:44 00:05:09 504 Sierra Madre CA
114 25-29 Female Coady Kristin 28 01:26:54 00:34:00 00:01:27 00:43:30 00:04:23 00:03:33 505 Ridgecrest CA
217 30-34 Female Falco Rachel 31 01:26:56 00:36:09 00:01:41 00:38:58 00:04:44 00:05:22 506 Pasadena CA
706 50-54 Female Preciado Gloria 11 01:27:00 00:31:52 00:02:14 00:41:48 00:04:06 00:06:58 507 Upland CA
680 45-49 Male Zhou Wanpian 40 01:27:04 00:31:05 00:02:48 00:42:30 00:05:37 00:05:03 508 Temple City CA
789 55-59 Male De Mauregne Marc 25 01:27:07 00:29:29 00:01:17 00:45:56 00:04:09 00:06:14 509 Sherman Oaks CA
825 60-64 Female Sonntag Gabriela 6 01:27:07 00:38:34 00:02:10 00:37:47 00:04:08 00:04:26 510 San Marcos CA
62 16-19 Female Bretz Kaeleah 2 01:27:10 00:41:37 00:00:46 00:38:43 00:02:57 00:03:06 511 Mesa AZ
718 50-54 Female Wood Sheryl 12 01:27:12 00:35:19 00:01:08 00:40:36 00:04:46 00:05:21 512 Cypress CA
94 20-24 Male Lin Jordan 16 01:27:15 00:31:29 00:01:19 00:47:30 00:03:37 00:03:18 513 Diamond Bar CA
638 45-49 Male Dekunder Mark 41 01:27:16 00:40:11 00:02:11 00:37:11 00:04:06 00:03:35 514 Burbank CA
958 45-49 Male Jones Chuck 42 01:27:23 00:34:41 00:02:12 00:40:44 00:05:20 00:04:24 515 Pasadena CA
907 Clydesdale Estril Salvador 14 01:27:26 00:38:03 00:01:47 00:39:07 00:04:06 00:04:22 516 Stanton CA
82 20-24 Female Moloney Kari 3 01:27:34 00:30:57 00:02:10 00:45:38 00:04:24 00:04:24 517 Las Vegas NV
681 50-54 Female Aranda Victoria 13 01:27:43 00:38:53 00:01:45 00:38:23 00:03:53 00:04:48 518 San Marino CA
368 35-39 Female Saelor Rachelle 31 01:27:44 00:34:11 00:01:25 00:41:05 00:04:04 00:06:56 519 El Monte CA
745 50-54 Male Nielsen David 27 01:27:50 00:37:00 00:01:42 00:40:27 00:04:11 00:04:28 520 South Pasadena CA
911 Clydesdale Gomez Maurice 15 01:27:53 00:30:56 00:01:50 00:43:09 00:05:39 00:06:16 521 Montebello CA
623 45-49 Male Araneta Michael 43 01:27:57 00:48:32 00:01:50 00:26:05 00:06:07 00:05:21 522 Huntington Beach CA
888 Athena Lindow Tevia 3 01:28:00 00:37:00 00:01:49 00:41:36 00:03:52 00:03:40 523 Corona CA
365 35-39 Female Raley Amanda 32 01:28:01 00:32:11 00:01:58 00:43:58 00:06:12 00:03:40 524 Huntington Beach CA
871 70-74 Female Jarrett Sepulveda Rosalind 2 01:28:01 00:37:37 00:00:48 00:40:33 00:03:32 00:05:29 525 Los Angeles CA
255 30-34 Female Sondheim Loc 32 01:28:02 00:31:03 00:00:57 00:45:35 00:04:56 00:05:28 526 Los Angeles CA
415 35-39 Male Nevarez Ruben 51 01:28:06 00:37:54 00:02:31 00:38:18 00:04:34 00:04:47 527 Downey CA
688 50-54 Female Doi Candice 14 01:28:07 00:35:49 00:01:41 00:39:50 00:05:50 00:04:56 528 Monrovia CA
815 60-64 Female Hillier Mary Anne 7 01:28:12 00:30:14 00:01:21 00:40:46 00:08:51 00:06:58 529 Los Angeles CA
428 35-39 Male Sooper Harden 52 01:28:17 00:32:18 00:01:40 00:43:51 00:04:47 00:05:39 530 Redondo Beach CA
191 25-29 Male Santiago Christian 27 01:28:19 00:29:24 00:01:44 00:48:21 00:03:48 00:04:59 531 Los Angeles CA
309 30-34 Male Oh Timothy 44 01:28:22 00:31:16 00:01:22 00:46:10 00:04:44 00:04:47 532 Buena Park CA
602 45-49 Female Mankerian Yvette 23 01:28:23 00:38:51 00:02:31 00:36:52 00:05:19 00:04:48 533 Sherman Oaks CA
803 55-59 Male Terrell Brett 26 01:28:30 00:41:53 00:02:21 00:34:38 00:04:47 00:04:47 534 Pasadena CA
15 45-49 Female Ciccotello Dina 24 01:28:34 00:31:49 00:01:55 00:39:37 00:08:40 00:06:33 535 Sherman Oaks CA
318 30-34 Male Soriano Shelton 45 01:28:36 00:35:25 00:01:54 00:41:04 00:05:49 00:04:21 536 Cerrito CA
764 55-59 Female Fleming Dara 8 01:28:39 00:40:12 00:02:57 00:36:06 00:05:10 00:04:13 537 Glendale CA
668 45-49 Male Romero Robert 44 01:28:48 00:36:56 00:01:45 00:38:40 00:06:46 00:04:39 538 Rch Cucamonga CA
801 55-59 Male Russell Mark 27 01:28:48 00:37:18 00:02:14 00:38:24 00:06:14 00:04:36 539 Pasadena CA
112 25-29 Female Carr Lauren 29 01:28:49 00:35:03 00:01:54 00:41:15 00:05:38 00:04:57 540 Los Angeles CA
694 50-54 Female Gralnek Gaelle 15 01:28:51 00:35:05 00:01:11 00:43:38 00:04:15 00:04:41 541 La Canada CA
611 45-49 Female Rivers Jana 25 01:28:58 00:35:42 00:01:57 00:37:46 00:05:48 00:07:44 542 Rialto CA
259 30-34 Female Tracy Katrina 33 01:28:59 00:34:37 00:01:34 00:41:53 00:05:38 00:05:15 543 Los Angeles CA
45 13-15 Male Dadvand Aydin 13 01:29:00 00:31:57 00:02:23 00:46:20 00:04:18 00:04:00 544 Beverly Hills CA
78 20-24 Female Favela Bianca 4 01:29:05 00:31:07 00:01:36 00:46:46 00:04:29 00:05:06 545 Downey CA
770 55-59 Female Khorsandi Holly 9 01:29:07 00:38:15 00:02:23 00:37:49 00:05:44 00:04:55 546 Oak Park CA
268 30-34 Female Yeh Amy 34 01:29:11 00:31:10 00:01:14 00:47:20 00:03:52 00:05:32 547 Pasadena CA
357 35-39 Female Mele Jenna 33 01:29:13 00:37:59 00:01:32 00:41:08 00:05:12 00:03:20 548 Pasadena CA
758 50-54 Male Wang Wen Chang 28 01:29:19 00:40:04 00:01:22 00:36:34 00:05:54 00:05:23 549 Walnut CA
411 35-39 Male Lok Ronald 53 01:29:19 00:34:37 00:02:27 00:38:00 00:07:48 00:06:25 550 Azusa CA
829 60-64 Male Chin Kenneth 20 01:29:24 00:34:38 00:06:09 00:33:31 00:08:33 00:06:30 551 Rowland Hghts CA
156 25-29 Female Wong Yenli 30 01:29:25 00:33:32 00:02:18 00:43:43 00:04:35 00:05:15 552 Los Angeles CA
131 25-29 Female Kim Charlene 31 01:29:47 00:31:17 00:01:48 00:48:53 00:03:05 00:04:42 553 Los Angeles CA
142 25-29 Female Muller Franzis 32 01:29:54 00:37:02 00:01:20 00:44:07 00:03:46 00:03:36 554 N Hollywood CA
93 20-24 Male Kim Keanu 17 01:29:55 00:29:20 00:01:25 00:48:47 00:05:42 00:04:39 555 Torrance CA
518 40-44 Male Flores Luis 43 01:29:57 00:33:32 00:02:26 00:41:28 00:06:08 00:06:21 556 Los Angeles CA
27 1-12 Male Childress Sawyer 3 01:30:06 00:27:54 00:02:02 00:50:28 00:04:26 00:05:14 557 Agoura Hills CA
134 25-29 Female Mak Wai 33 01:30:06 00:34:11 00:01:32 00:41:36 00:04:40 00:08:05 558 Los Angeles CA
102 20-24 Male Sunaoka Luke 18 01:30:07 00:28:49 00:02:04 00:48:47 00:05:57 00:04:28 559 Torrance CA
269 30-34 Female Zarley Jessica 35 01:30:08 00:29:06 00:02:04 00:47:59 00:04:17 00:06:39 560 Lancaster CA
965 40-44 Male Wang Eric 44 01:30:17 00:30:48 00:03:20 00:43:33 00:07:11 00:05:23 561 Sunnyvale CA
671 45-49 Male Simons Gerald 45 01:30:20 00:39:58 00:01:23 00:36:59 00:03:39 00:08:18 562 Lakewood CA
258 30-34 Female Tostado Soyla 36 01:30:22 00:32:03 00:01:11 00:46:02 00:04:59 00:06:05 563 Walnut CA
159 25-29 Male Ajoku Andrew 28 01:30:26 00:31:22 00:01:34 00:42:10 00:09:41 00:05:37 564 San Bernardino CA
558 40-44 Male Shields Russell 45 01:30:27 00:29:29 00:01:23 00:48:23 00:05:49 00:05:21 565 Saugus CA
151 25-29 Female Verniere Emily 34 01:30:27 00:31:23 00:01:33 00:46:53 00:05:00 00:05:37 566 Pasadena CA
860 65-69 Male Deutsch David 9 01:30:29 00:33:37 00:04:03 00:40:31 00:06:39 00:05:37 567 Encino CA
600 45-49 Female Langton Aleen 26 01:30:29 00:35:09 00:02:52 00:43:04 00:04:14 00:05:08 568 La Canada CA
590 45-49 Female Helton Leslie 27 01:30:30 00:40:20 00:02:11 00:38:07 00:04:42 00:05:08 569 La Crescenta CA
713 50-54 Female Verdugo Cindy 16 01:30:32 00:32:27 00:01:11 00:43:43 00:06:02 00:07:06 570 Granada Hills CA
152 25-29 Female Villanueva Ariana 35 01:30:34 00:32:09 00:01:45 00:46:03 00:04:06 00:06:29 571 Los Angeles CA
490 40-44 Female Velasco Angelica 32 01:30:42 00:35:15 00:02:58 00:40:25 00:06:24 00:05:39 572 Los Angeles CA
712 50-54 Female Thornton Marla 17 01:30:44 00:37:16 00:01:18 00:43:16 00:03:33 00:05:18 573 Pasadena CA
323 35-39 Female Abajian Lauren 34 01:30:54 00:37:35 00:03:59 00:37:56 00:06:43 00:04:39 574 Montebello CA
122 25-29 Female Faissal Angela 36 01:30:58 00:30:36 00:02:07 00:48:10 00:04:33 00:05:30 575 Pasadena CA
496 40-44 Female Wilson Jennifer 33 01:30:58 00:37:57 00:00:53 00:43:51 00:03:38 00:04:38 576 Canyon Country CA
425 35-39 Male Rose Michael 54 01:31:02 00:37:47 00:01:06 00:44:04 00:04:03 00:04:00 577 Culver City CA
448 40-44 Female Childress Darlynn 34 01:31:12 00:33:16 00:02:03 00:45:55 00:04:43 00:05:13 578 Agoura Hills CA
73 16-19 Male Yeghiazarian Vahag 7 01:31:15 00:36:49 00:02:46 00:41:42 00:04:35 00:05:21 579 Glendale CA
465 40-44 Female Laj Rios Anel 35 01:31:25 00:31:32 00:01:53 00:45:26 00:04:52 00:07:41 580 N Hollywood CA
64 16-19 Female Gomez Kayla 3 01:31:36 00:28:48 00:01:19 00:51:43 00:05:21 00:04:23 581 Whittier CA
360 35-39 Female Padilla Nicole 35 01:31:36 00:37:55 00:01:01 00:43:44 00:04:17 00:04:37 582 Whittier CA
331 35-39 Female Chin Michelle 36 01:31:36 00:38:58 00:02:06 00:38:17 00:07:05 00:05:09 583 Rowland Heights CA
729 50-54 Male Floriano Welison 29 01:31:43 00:31:38 00:08:19 00:35:07 00:10:52 00:05:45 584 Eagle Rock CA
928 Clydesdale Sporman Mark 16 01:31:45 00:40:11 00:03:09 00:38:40 00:05:32 00:04:12 585 Fullerton CA
715 50-54 Female Wheeler Jamison Terri 18 01:31:48 00:38:58 00:02:28 00:39:36 00:05:46 00:04:58 586 Bakersfield CA
220 30-34 Female Frewen Lindsay 37 01:31:50 00:40:28 00:01:13 00:41:29 00:04:10 00:04:28 587 Los Angeles CA
701 50-54 Female Lovato Thelma 19 01:31:54 00:31:13 00:01:16 00:46:06 00:05:04 00:08:13 588 Sun Valley CA
254 30-34 Female Schilling Kristen 38 01:32:02 00:36:33 00:03:30 00:42:15 00:05:12 00:04:31 589 San Bernardino CA
478 40-44 Female Muniz-pagan Karina 36 01:32:02 00:39:43 00:02:17 00:38:38 00:06:21 00:05:00 590 Long Beach CA
902 Clydesdale Boutt? Michael 17 01:32:03 00:37:33 00:02:18 00:41:18 00:05:25 00:05:26 591 Redondo Beach CA
608 45-49 Female Plurad Hong Yoon 28 01:32:12 00:33:01 00:02:01 00:46:06 00:04:10 00:06:52 592 Sierra Madre CA
240 30-34 Female Laubacher Joey 39 01:32:16 00:36:59 00:01:06 00:44:40 00:03:50 00:05:38 593 Camarillo CA
207 30-34 Female Black Neda 40 01:32:17 00:33:59 00:01:09 00:43:56 00:08:54 00:04:17 594 Pasadena CA
386 35-39 Male Black David 55 01:32:23 00:33:47 00:01:22 00:43:53 00:09:01 00:04:17 595 Pasadena CA
252 30-34 Female Rueda Katia 41 01:32:23 00:29:53 00:03:03 00:45:55 00:05:42 00:07:48 596 Sylmar CA
343 35-39 Female Kim Grace 37 01:32:28 00:34:50 00:02:06 00:43:40 00:05:50 00:06:00 597 Diamond Bar CA
734 50-54 Male Hoxie Steve 30 01:32:29 00:38:02 00:01:19 00:43:20 00:04:48 00:04:59 598 Tarzana CA
891 Athena Martinez Adrienne 4 01:32:32 00:36:30 00:02:45 00:00:00 00:00:00 00:04:29 599 Granada Hills CA
592 45-49 Female Jaramillo Rosana 29 01:32:41 00:31:14 00:01:30 00:49:00 00:05:40 00:05:15 600 Sherman Oaks CA
Notes Pages Download Filter By
 




Keyword Exact  
Division

Bib First Name Last Name Team Name City State Total Time Gun Run T1 Bike T2 Swim Overall
Not Found
Notes Pages Download Filter By
 




Keyword Exact  
Division

Bib Division Last Name First Name Division Place Chip Run T1 Bike T2 Run 2 Overall City State
Not Found
Notes Pages Download Filter By
 




Keyword Exact  
Division

Bib First Name Last Name Team Name City State Total Time
Not Found
Notes Pages Download Filter By
 




Keyword Exact  
Division

Bib Division Last Name First Name Division Place Gun Chip Overall City State
Not Found